createdAt,value
2023-02-13T00:01:14.175Z,2.61
2023-02-13T00:03:16.372Z,2.66
2023-02-13T00:05:18.680Z,2.69
2023-02-13T00:07:21.041Z,2.71
2023-02-13T00:09:23.063Z,2.70
2023-02-13T00:11:25.150Z,2.74
2023-02-13T00:13:27.302Z,2.83
2023-02-13T00:15:29.386Z,2.89
2023-02-13T00:17:32.449Z,2.83
2023-02-13T00:19:34.432Z,2.90
2023-02-13T00:21:36.486Z,2.87
2023-02-13T00:23:39.954Z,2.87
2023-02-13T00:25:42.103Z,2.88
2023-02-13T00:27:44.297Z,2.93
2023-02-13T00:29:46.456Z,2.94
2023-02-13T00:31:48.683Z,2.83
2023-02-13T00:33:51.203Z,2.88
2023-02-13T00:36:04.749Z,2.71
2023-02-13T00:38:06.690Z,2.75
2023-02-13T00:40:09.322Z,2.80
2023-02-13T00:42:11.975Z,2.73
2023-02-13T00:44:13.992Z,2.75
2023-02-13T00:46:17.703Z,2.73
2023-02-13T00:48:19.962Z,2.73
2023-02-13T00:50:21.934Z,2.57
2023-02-13T00:52:23.952Z,2.63
2023-02-13T00:54:25.920Z,2.63
2023-02-13T00:56:28.428Z,2.62
2023-02-13T00:58:33.453Z,2.54
2023-02-13T01:00:35.754Z,2.52
2023-02-13T01:02:37.703Z,2.55
2023-02-13T01:04:39.808Z,2.48
2023-02-13T01:06:41.936Z,2.45
2023-02-13T01:08:44.023Z,2.45
2023-02-13T01:10:47.623Z,2.43
2023-02-13T01:12:49.646Z,2.43
2023-02-13T01:14:52.634Z,2.22
2023-02-13T01:16:55.280Z,2.25
2023-02-13T01:18:57.397Z,2.23
2023-02-13T01:21:06.210Z,2.18
2023-02-13T01:23:10.235Z,2.16
2023-02-13T01:25:12.243Z,2.12
2023-02-13T01:27:14.751Z,2.21
2023-02-13T01:29:17.855Z,2.22
2023-02-13T01:31:20.205Z,2.15
2023-02-13T01:33:27.864Z,2.12
2023-02-13T01:35:29.772Z,2.14
2023-02-13T01:37:32.078Z,2.13
2023-02-13T01:39:36.099Z,2.09
2023-02-13T01:41:38.826Z,2.10
2023-02-13T01:44:26.874Z,2.00
2023-02-13T01:46:43.447Z,1.98
2023-02-13T01:48:46.908Z,2.09
2023-02-13T01:51:06.063Z,1.98
2023-02-13T01:53:38.324Z,1.92
2023-02-13T01:56:18.352Z,1.91
2023-02-13T01:58:25.112Z,1.89
2023-02-13T02:00:30.455Z,1.94
2023-02-13T02:02:37.558Z,1.90
2023-02-13T02:04:42.288Z,1.91
2023-02-13T02:06:58.170Z,1.94
2023-02-13T02:09:11.116Z,1.95
2023-02-13T02:11:22.921Z,1.90
2023-02-13T02:13:29.773Z,1.93
2023-02-13T02:15:38.975Z,1.92
2023-02-13T02:17:41.633Z,1.93
2023-02-13T02:20:04.118Z,1.85
2023-02-13T02:22:38.215Z,1.83
2023-02-13T02:25:14.166Z,1.78
2023-02-13T02:27:37.861Z,1.69
2023-02-13T02:30:01.838Z,1.63
2023-02-13T02:32:11.639Z,1.78
2023-02-13T02:34:31.931Z,1.66
2023-02-13T02:36:43.334Z,1.68
2023-02-13T02:39:02.223Z,1.67
2023-02-13T02:41:51.944Z,1.67
2023-02-13T02:44:08.589Z,1.58
2023-02-13T02:46:32.585Z,1.46
2023-02-13T02:49:25.306Z,1.44
2023-02-13T02:51:30.234Z,1.38
2023-02-13T02:53:47.264Z,1.53
2023-02-13T02:56:07.677Z,1.47
2023-02-13T02:58:32.797Z,1.45
2023-02-13T03:01:01.681Z,1.34
2023-02-13T03:03:28.409Z,1.34
2023-02-13T03:05:53.008Z,1.44
2023-02-13T03:07:55.060Z,1.36
2023-02-13T03:10:20.947Z,1.34
2023-02-13T03:12:45.642Z,1.41
2023-02-13T03:14:47.892Z,1.36
2023-02-13T03:17:09.806Z,1.40
2023-02-13T03:19:47.357Z,1.34
2023-02-13T03:22:18.510Z,1.30
2023-02-13T03:24:32.048Z,1.37
2023-02-13T03:26:52.142Z,1.38
2023-02-13T03:29:27.238Z,1.32
2023-02-13T03:31:50.858Z,1.30
2023-02-13T03:34:24.826Z,1.25
2023-02-13T03:36:59.257Z,1.23
2023-02-13T03:39:17.258Z,1.18
2023-02-13T03:41:27.768Z,1.20
2023-02-13T03:43:37.005Z,1.19
2023-02-13T03:45:57.487Z,1.22
2023-02-13T03:48:10.031Z,1.21
2023-02-13T03:50:14.150Z,1.28
2023-02-13T03:52:27.446Z,1.28
2023-02-13T03:55:05.730Z,1.15
2023-02-13T03:57:27.353Z,1.28
2023-02-13T03:59:34.112Z,1.26
2023-02-13T04:01:37.778Z,1.33
2023-02-13T04:03:57.825Z,1.26
2023-02-13T04:06:27.912Z,1.14
2023-02-13T04:08:30.400Z,1.30
2023-02-13T04:10:35.986Z,1.29
2023-02-13T04:12:47.805Z,1.30
2023-02-13T04:15:03.408Z,1.36
2023-02-13T04:17:12.128Z,1.23
2023-02-13T04:19:15.405Z,1.20
2023-02-13T04:21:17.484Z,1.25
2023-02-13T04:23:19.950Z,1.20
2023-02-13T04:25:22.606Z,1.20
2023-02-13T04:27:26.993Z,1.19
2023-02-13T04:29:29.146Z,1.18
2023-02-13T04:31:31.562Z,1.23
2023-02-13T04:33:33.792Z,1.23
2023-02-13T04:35:35.931Z,1.22
2023-02-13T04:37:38.128Z,1.27
2023-02-13T04:39:40.081Z,1.25
2023-02-13T04:41:42.634Z,1.18
2023-02-13T04:43:45.502Z,1.03
2023-02-13T04:45:51.240Z,1.00
2023-02-13T04:47:55.137Z,1.05
2023-02-13T04:49:57.250Z,1.07
2023-02-13T04:51:59.228Z,1.06
2023-02-13T04:54:01.235Z,1.08
2023-02-13T04:56:03.360Z,1.00
2023-02-13T04:58:08.323Z,0.94
2023-02-13T05:00:11.136Z,0.91
2023-02-13T05:02:13.479Z,0.96
2023-02-13T05:04:16.510Z,1.00
2023-02-13T05:06:18.642Z,1.00
2023-02-13T05:08:20.748Z,1.05
2023-02-13T05:10:23.222Z,0.96
2023-02-13T05:12:25.288Z,1.02
2023-02-13T05:14:27.834Z,0.95
2023-02-13T05:16:29.973Z,0.93
2023-02-13T05:18:32.625Z,0.98
2023-02-13T05:20:34.693Z,0.94
2023-02-13T05:22:55.344Z,1.00
2023-02-13T05:24:57.406Z,0.91
2023-02-13T05:26:59.435Z,1.00
2023-02-13T05:29:23.070Z,0.97
2023-02-13T05:31:25.322Z,0.99
2023-02-13T05:33:27.838Z,0.94
2023-02-13T05:35:29.930Z,0.94
2023-02-13T05:37:32.384Z,0.82
2023-02-13T05:39:34.532Z,0.85
2023-02-13T05:41:36.539Z,0.81
2023-02-13T05:43:38.617Z,0.86
2023-02-13T05:45:40.809Z,0.85
2023-02-13T05:47:43.366Z,0.82
2023-02-13T05:49:45.464Z,0.75
2023-02-13T05:51:47.857Z,0.71
2023-02-13T05:53:50.193Z,0.70
2023-02-13T05:55:52.686Z,0.67
2023-02-13T05:58:00.805Z,0.68
2023-02-13T06:00:04.785Z,0.67
2023-02-13T06:02:07.606Z,0.69
2023-02-13T06:04:09.904Z,0.62
2023-02-13T06:06:12.100Z,0.58
2023-02-13T06:08:14.208Z,0.64
2023-02-13T06:10:16.559Z,0.62
2023-02-13T06:12:18.628Z,0.65
2023-02-13T06:14:20.724Z,0.67
2023-02-13T06:16:23.390Z,0.71
2023-02-13T06:18:27.074Z,0.81
2023-02-13T06:20:29.450Z,0.85
2023-02-13T06:22:31.458Z,0.89
2023-02-13T06:24:33.890Z,0.94
2023-02-13T06:26:35.962Z,0.98
2023-02-13T06:28:38.093Z,1.06
2023-02-13T06:30:40.303Z,1.03
2023-02-13T06:32:42.696Z,1.01
2023-02-13T06:34:44.714Z,0.99
2023-02-13T06:36:47.310Z,1.13
2023-02-13T06:38:49.289Z,1.16
2023-02-13T06:40:51.514Z,1.21
2023-02-13T06:42:54.121Z,1.22
2023-02-13T06:44:56.337Z,1.28
2023-02-13T06:47:01.583Z,1.26
2023-02-13T06:49:04.039Z,1.55
2023-02-13T06:51:08.872Z,1.65
2023-02-13T06:53:12.134Z,1.72
2023-02-13T06:55:14.994Z,1.85
2023-02-13T06:57:17.630Z,1.93
2023-02-13T06:59:19.718Z,2.01
2023-02-13T07:01:21.904Z,2.10
2023-02-13T07:03:24.400Z,2.07
2023-02-13T07:05:26.292Z,2.09
2023-02-13T07:07:28.340Z,2.29
2023-02-13T07:09:31.715Z,2.40
2023-02-13T07:11:34.276Z,2.54
2023-02-13T07:13:36.281Z,2.69
2023-02-13T07:15:38.790Z,2.78
2023-02-13T07:17:40.654Z,2.96
2023-02-13T07:19:42.676Z,3.07
2023-02-13T07:21:44.546Z,3.19
2023-02-13T07:23:46.595Z,3.31
2023-02-13T07:25:48.649Z,3.48
2023-02-13T07:27:50.897Z,3.50
2023-02-13T07:29:52.868Z,3.50
2023-02-13T07:31:55.049Z,3.57
2023-02-13T07:34:00.411Z,3.52
2023-02-13T07:36:05.887Z,3.52
2023-02-13T07:38:08.044Z,3.52
2023-02-13T07:40:13.923Z,3.51
2023-02-13T07:42:16.133Z,3.47
2023-02-13T07:44:18.190Z,3.47
2023-02-13T07:46:20.717Z,3.56
2023-02-13T07:48:24.126Z,3.60
2023-02-13T07:50:26.690Z,3.74
2023-02-13T07:52:28.762Z,3.88
2023-02-13T07:54:31.354Z,3.95
2023-02-13T07:56:33.792Z,4.06
2023-02-13T07:58:37.489Z,4.10
2023-02-13T08:00:41.670Z,4.10
2023-02-13T08:02:44.604Z,4.25
2023-02-13T08:04:46.742Z,4.39
2023-02-13T08:06:48.802Z,4.58
2023-02-13T08:09:10.855Z,4.78
2023-02-13T08:11:50.171Z,4.54
2023-02-13T08:13:52.615Z,4.72
2023-02-13T08:15:55.041Z,4.86
2023-02-13T08:17:57.260Z,4.95
2023-02-13T08:19:59.472Z,4.93
2023-02-13T08:22:01.717Z,5.06
2023-02-13T08:24:04.923Z,5.14
2023-02-13T08:26:07.045Z,5.07
2023-02-13T08:28:09.013Z,5.28
2023-02-13T08:30:12.243Z,5.19
2023-02-13T08:32:15.163Z,5.30
2023-02-13T08:34:17.301Z,5.29
2023-02-13T08:36:20.060Z,5.34
2023-02-13T08:38:22.083Z,5.39
2023-02-13T08:40:26.033Z,5.50
2023-02-13T08:42:28.155Z,5.52
2023-02-13T08:44:30.401Z,5.50
2023-02-13T08:46:32.638Z,5.59
2023-02-13T08:48:35.170Z,5.49
2023-02-13T08:50:37.468Z,5.48
2023-02-13T08:52:39.488Z,5.56
2023-02-13T08:54:41.555Z,5.42
2023-02-13T08:56:43.798Z,5.45
2023-02-13T08:58:49.546Z,5.45
2023-02-13T09:00:52.092Z,5.46
2023-02-13T09:02:56.894Z,5.64
2023-02-13T09:05:00.506Z,5.65
2023-02-13T09:07:02.660Z,5.68
2023-02-13T09:09:05.811Z,5.65
2023-02-13T09:11:08.014Z,5.77
2023-02-13T09:13:10.699Z,5.80
2023-02-13T09:15:12.924Z,5.85
2023-02-13T09:17:18.654Z,5.87
2023-02-13T09:19:21.052Z,5.86
2023-02-13T09:21:24.263Z,5.77
2023-02-13T09:23:26.625Z,5.83
2023-02-13T09:25:28.659Z,5.88
2023-02-13T09:27:30.977Z,5.85
2023-02-13T09:29:34.162Z,5.81
2023-02-13T09:31:38.865Z,5.82
2023-02-13T09:33:41.383Z,5.82
2023-02-13T09:35:46.196Z,5.88
2023-02-13T09:37:51.013Z,5.91
2023-02-13T09:39:53.590Z,5.88
2023-02-13T09:41:57.496Z,5.92
2023-02-13T09:44:34.190Z,5.99
2023-02-13T09:46:39.170Z,5.93
2023-02-13T09:48:45.645Z,6.02
2023-02-13T09:50:47.844Z,6.03
2023-02-13T09:52:53.308Z,6.10
2023-02-13T09:54:58.485Z,6.17
2023-02-13T09:57:19.680Z,6.16
2023-02-13T09:59:36.911Z,6.26
2023-02-13T10:01:44.525Z,6.38
2023-02-13T10:04:05.072Z,6.42
2023-02-13T10:06:21.921Z,6.46
2023-02-13T10:08:36.430Z,6.52
2023-02-13T10:11:07.506Z,6.47
2023-02-13T10:13:26.497Z,6.58
2023-02-13T10:15:51.547Z,6.67
2023-02-13T10:18:35.154Z,6.64
2023-02-13T10:20:42.458Z,6.68
2023-02-13T10:23:08.429Z,6.69
2023-02-13T10:25:23.079Z,6.72
2023-02-13T10:27:43.532Z,6.82
2023-02-13T10:30:15.242Z,6.84
2023-02-13T10:32:22.575Z,6.92
2023-02-13T10:34:31.584Z,6.94
2023-02-13T10:36:40.884Z,6.96
2023-02-13T10:39:05.376Z,6.98
2023-02-13T10:41:45.062Z,6.96
2023-02-13T10:44:13.672Z,6.90
2023-02-13T10:46:34.270Z,6.90
2023-02-13T10:49:00.204Z,6.98
2023-02-13T10:51:06.312Z,7.06
2023-02-13T10:53:25.216Z,7.07
2023-02-13T10:55:59.485Z,7.04
2023-02-13T10:58:05.021Z,7.05
2023-02-13T11:00:46.246Z,7.00
2023-02-13T11:02:48.790Z,7.09
2023-02-13T11:04:57.973Z,7.08
2023-02-13T11:07:01.894Z,7.16
2023-02-13T11:09:09.868Z,7.25
2023-02-13T11:11:31.714Z,7.22
2023-02-13T11:13:33.621Z,7.25
2023-02-13T11:15:37.407Z,7.27
2023-02-13T11:17:44.226Z,7.22
2023-02-13T11:19:56.039Z,7.23
2023-02-13T11:22:12.276Z,7.23
2023-02-13T11:24:24.736Z,7.27
2023-02-13T11:26:29.547Z,7.36
2023-02-13T11:28:35.223Z,7.47
2023-02-13T11:30:39.642Z,7.60
2023-02-13T11:32:41.948Z,7.69
2023-02-13T11:34:46.769Z,7.77
2023-02-13T11:36:52.992Z,7.84
2023-02-13T11:39:00.670Z,7.89
2023-02-13T11:41:12.386Z,7.94
2023-02-13T11:43:39.241Z,8.06
2023-02-13T11:45:41.422Z,8.20
2023-02-13T11:47:43.846Z,8.30
2023-02-13T11:49:47.819Z,8.38
2023-02-13T11:51:55.968Z,8.47
2023-02-13T11:54:01.277Z,8.55
2023-02-13T11:56:09.275Z,8.51
2023-02-13T11:58:11.545Z,8.62
2023-02-13T12:00:37.521Z,8.65
2023-02-13T12:02:50.194Z,8.72
2023-02-13T12:05:17.017Z,8.62
2023-02-13T12:07:21.700Z,8.78
2023-02-13T12:09:23.797Z,8.75
2023-02-13T12:11:33.808Z,8.84
2023-02-13T12:13:39.135Z,8.85
2023-02-13T12:15:43.438Z,8.89
2023-02-13T12:17:50.157Z,9.02
2023-02-13T12:19:52.566Z,9.06
2023-02-13T12:21:57.548Z,9.11
2023-02-13T12:24:30.378Z,9.11
2023-02-13T12:26:43.050Z,9.14
2023-02-13T12:28:45.083Z,9.22
2023-02-13T12:31:09.907Z,9.20
2023-02-13T12:33:54.306Z,9.29
2023-02-13T12:36:21.234Z,9.24
2023-02-13T12:38:35.198Z,9.34
2023-02-13T12:40:43.332Z,9.35
2023-02-13T12:43:27.102Z,9.34
2023-02-13T12:45:38.642Z,9.42
2023-02-13T12:47:49.158Z,9.47
2023-02-13T12:50:18.001Z,9.53
2023-02-13T12:52:29.240Z,9.57
2023-02-13T12:55:05.202Z,9.53
2023-02-13T12:57:07.485Z,9.56
2023-02-13T12:59:11.007Z,9.57
2023-02-13T13:01:34.297Z,9.57
2023-02-13T13:03:52.522Z,9.54
2023-02-13T13:06:31.976Z,9.58
2023-02-13T13:08:48.931Z,9.60
2023-02-13T13:11:12.747Z,9.64
2023-02-13T13:13:20.642Z,9.64
2023-02-13T13:15:48.138Z,9.65
2023-02-13T13:18:40.989Z,9.58
2023-02-13T13:20:58.834Z,9.56
2023-02-13T13:23:42.332Z,9.60
2023-02-13T13:25:52.169Z,9.65
2023-02-13T13:28:02.437Z,9.67
2023-02-13T13:30:14.227Z,9.67
2023-02-13T13:32:21.654Z,9.67
2023-02-13T13:34:26.804Z,9.69
2023-02-13T13:36:50.044Z,9.61
2023-02-13T13:39:05.351Z,9.60
2023-02-13T13:41:23.681Z,9.56
2023-02-13T13:44:22.666Z,9.51
2023-02-13T13:46:32.864Z,9.60
2023-02-13T13:48:35.005Z,9.57
2023-02-13T13:50:42.118Z,9.56
2023-02-13T13:53:12.225Z,9.49
2023-02-13T13:56:09.611Z,9.52
2023-02-13T13:58:40.888Z,9.52
2023-02-13T14:00:43.133Z,9.53
2023-02-13T14:02:51.491Z,9.50
2023-02-13T14:05:20.842Z,9.47
2023-02-13T14:07:24.712Z,9.47
2023-02-13T14:09:27.282Z,9.50
2023-02-13T14:11:39.277Z,9.42
2023-02-13T14:13:41.694Z,9.39
2023-02-13T14:15:45.112Z,9.36
2023-02-13T14:17:49.743Z,9.31
2023-02-13T14:19:53.396Z,9.25
2023-02-13T14:22:15.893Z,9.25
2023-02-13T14:24:20.751Z,9.24
2023-02-13T14:26:32.410Z,9.16
2023-02-13T14:28:34.521Z,9.17
2023-02-13T14:30:40.606Z,9.18
2023-02-13T14:32:47.204Z,9.12
2023-02-13T14:35:18.790Z,9.05
2023-02-13T14:37:30.472Z,9.09
2023-02-13T14:39:38.067Z,9.04
2023-02-13T14:41:54.214Z,8.94
2023-02-13T14:43:57.115Z,8.98
2023-02-13T14:46:08.445Z,8.89
2023-02-13T14:48:14.925Z,8.89
2023-02-13T14:50:23.963Z,8.85
2023-02-13T14:52:32.955Z,8.80
2023-02-13T14:55:12.970Z,8.76
2023-02-13T14:57:32.065Z,8.77
2023-02-13T14:59:39.058Z,8.72
2023-02-13T15:01:58.119Z,8.69
2023-02-13T15:04:07.814Z,8.75
2023-02-13T15:06:30.159Z,8.66
2023-02-13T15:08:41.290Z,8.66
2023-02-13T15:10:47.327Z,8.65
2023-02-13T15:12:58.449Z,8.64
2023-02-13T15:15:01.939Z,8.67
2023-02-13T15:17:20.550Z,8.53
2023-02-13T15:19:24.768Z,8.59
2023-02-13T15:21:34.388Z,8.55
2023-02-13T15:23:36.745Z,8.53
2023-02-13T15:25:40.556Z,8.49
2023-02-13T15:27:44.129Z,8.47
2023-02-13T15:30:05.113Z,8.39
2023-02-13T15:32:28.898Z,8.37
2023-02-13T15:34:35.869Z,8.35
2023-02-13T15:36:42.223Z,8.31
2023-02-13T15:38:47.620Z,8.28
2023-02-13T15:40:52.263Z,8.28
2023-02-13T15:42:55.569Z,8.26
2023-02-13T15:44:58.956Z,8.22
2023-02-13T15:47:09.628Z,8.16
2023-02-13T15:49:18.939Z,8.13
2023-02-13T15:51:23.694Z,8.10
2023-02-13T15:53:26.044Z,8.11
2023-02-13T15:55:33.998Z,8.04
2023-02-13T15:57:36.457Z,8.05
2023-02-13T15:59:39.887Z,7.98
2023-02-13T16:01:46.534Z,7.93
2023-02-13T16:04:00.277Z,7.85
2023-02-13T16:06:04.835Z,7.86
2023-02-13T16:08:25.226Z,7.71
2023-02-13T16:10:36.401Z,7.67
2023-02-13T16:12:47.027Z,7.62
2023-02-13T16:14:54.437Z,7.59
2023-02-13T16:17:07.176Z,7.54
2023-02-13T16:19:32.801Z,7.47
2023-02-13T16:21:36.097Z,7.38
2023-02-13T16:23:38.824Z,7.23
2023-02-13T16:25:41.757Z,7.31
2023-02-13T16:27:52.780Z,7.27
2023-02-13T16:30:03.372Z,7.22
2023-02-13T16:32:14.589Z,7.20
2023-02-13T16:34:22.387Z,7.19
2023-02-13T16:36:30.065Z,7.10
2023-02-13T16:38:36.102Z,7.08
2023-02-13T16:40:41.664Z,7.06
2023-02-13T16:42:43.750Z,7.01
2023-02-13T16:44:45.882Z,6.97
2023-02-13T16:46:58.339Z,6.89
2023-02-13T16:49:09.590Z,6.87
2023-02-13T16:51:12.624Z,6.89
2023-02-13T16:53:16.454Z,6.81
2023-02-13T16:55:18.847Z,6.78
2023-02-13T16:57:33.929Z,6.69
2023-02-13T16:59:48.606Z,6.62
2023-02-13T17:02:14.678Z,6.59
2023-02-13T17:04:22.176Z,6.59
2023-02-13T17:06:25.395Z,6.53
2023-02-13T17:08:28.052Z,6.53
2023-02-13T17:10:34.170Z,6.47
2023-02-13T17:12:38.862Z,6.43
2023-02-13T17:14:41.174Z,6.43
2023-02-13T17:16:43.183Z,6.40
2023-02-13T17:18:45.214Z,6.40
2023-02-13T17:20:47.834Z,6.32
2023-02-13T17:22:52.677Z,6.29
2023-02-13T17:24:54.969Z,6.24
2023-02-13T17:26:57.150Z,6.21
2023-02-13T17:28:59.618Z,6.17
2023-02-13T17:31:02.228Z,5.97
2023-02-13T17:33:08.254Z,5.96
2023-02-13T17:35:11.924Z,5.95
2023-02-13T17:37:18.657Z,5.95
2023-02-13T17:39:20.766Z,5.93
2023-02-13T17:41:24.148Z,5.94
2023-02-13T17:43:28.176Z,5.89
2023-02-13T17:45:33.775Z,5.84
2023-02-13T17:47:35.957Z,5.82
2023-02-13T17:49:38.398Z,5.78
2023-02-13T17:51:41.621Z,5.64
2023-02-13T17:53:43.649Z,5.72
2023-02-13T17:55:45.858Z,5.74
2023-02-13T17:57:52.704Z,5.67
2023-02-13T17:59:59.315Z,5.64
2023-02-13T18:02:01.500Z,5.64
2023-02-13T18:04:03.691Z,5.65
2023-02-13T18:06:06.174Z,5.67
2023-02-13T18:08:08.753Z,5.60
2023-02-13T18:10:18.768Z,5.58
2023-02-13T18:12:24.317Z,5.60
2023-02-13T18:14:29.985Z,5.61
2023-02-13T18:16:32.278Z,5.67
2023-02-13T18:18:34.314Z,5.69
2023-02-13T18:20:36.443Z,5.64
2023-02-13T18:22:41.670Z,5.65
2023-02-13T18:24:43.942Z,5.70
2023-02-13T18:26:46.044Z,5.72
2023-02-13T18:28:52.501Z,5.70
2023-02-13T18:30:54.499Z,5.72
2023-02-13T18:32:59.114Z,5.72
2023-02-13T18:35:01.349Z,5.72
2023-02-13T18:37:04.557Z,5.71
2023-02-13T18:39:08.421Z,5.70
2023-02-13T18:41:12.205Z,5.72
2023-02-13T18:43:14.180Z,5.72
2023-02-13T18:45:16.314Z,5.71
2023-02-13T18:47:18.875Z,5.72
2023-02-13T18:49:21.065Z,5.72
2023-02-13T18:51:25.187Z,5.68
2023-02-13T18:53:27.640Z,5.63
2023-02-13T18:55:29.659Z,5.67
2023-02-13T18:57:31.914Z,5.62
2023-02-13T18:59:33.974Z,5.68
2023-02-13T19:01:36.896Z,5.67
2023-02-13T19:03:39.693Z,5.67
2023-02-13T19:05:41.802Z,5.65
2023-02-13T19:07:44.149Z,5.62
2023-02-13T19:09:46.266Z,5.60
2023-02-13T19:11:48.928Z,5.61
2023-02-13T19:13:56.679Z,5.58
2023-02-13T19:16:10.838Z,5.47
2023-02-13T19:18:12.849Z,5.45
2023-02-13T19:20:16.751Z,5.42
2023-02-13T19:22:19.320Z,5.43
2023-02-13T19:24:21.343Z,5.48
2023-02-13T19:26:26.250Z,5.43
2023-02-13T19:28:28.308Z,5.41
2023-02-13T19:30:30.524Z,5.46
2023-02-13T19:32:32.705Z,5.46
2023-02-13T19:34:35.073Z,5.48
2023-02-13T19:36:37.030Z,5.48
2023-02-13T19:38:42.060Z,5.42
2023-02-13T19:40:44.148Z,5.43
2023-02-13T19:42:46.186Z,5.36
2023-02-13T19:44:48.126Z,5.34
2023-02-13T19:46:50.357Z,5.36
2023-02-13T19:48:52.854Z,5.30
2023-02-13T19:50:54.915Z,5.28
2023-02-13T19:52:56.855Z,5.26
2023-02-13T19:54:59.261Z,5.19
2023-02-13T19:57:07.298Z,5.16
2023-02-13T19:59:13.592Z,5.11
2023-02-13T20:01:18.394Z,5.07
2023-02-13T20:03:20.939Z,5.04
2023-02-13T20:05:22.832Z,5.07
2023-02-13T20:07:24.889Z,5.00
2023-02-13T20:09:26.872Z,5.10
2023-02-13T20:11:29.585Z,5.12
2023-02-13T20:13:32.100Z,5.12
2023-02-13T20:15:37.082Z,5.11
2023-02-13T20:17:39.598Z,5.14
2023-02-13T20:19:41.866Z,5.01
2023-02-13T20:21:45.464Z,5.00
2023-02-13T20:23:51.838Z,4.93
2023-02-13T20:25:56.201Z,5.01
2023-02-13T20:27:59.823Z,5.07
2023-02-13T20:30:06.860Z,5.10
2023-02-13T20:32:10.461Z,5.09
2023-02-13T20:34:12.868Z,5.06
2023-02-13T20:36:20.777Z,5.09
2023-02-13T20:38:22.903Z,5.04
2023-02-13T20:40:25.974Z,5.13
2023-02-13T20:42:28.359Z,5.14
2023-02-13T20:44:30.633Z,5.20
2023-02-13T20:46:34.482Z,5.14
2023-02-13T20:48:37.659Z,5.11
2023-02-13T20:50:40.148Z,5.11
2023-02-13T20:52:42.375Z,5.01
2023-02-13T20:54:44.422Z,5.01
2023-02-13T20:56:47.658Z,4.93
2023-02-13T20:58:51.566Z,4.96
2023-02-13T21:00:53.645Z,4.92
2023-02-13T21:02:55.824Z,4.87
2023-02-13T21:04:57.966Z,4.83
2023-02-13T21:07:00.338Z,4.79
2023-02-13T21:09:04.296Z,4.61
2023-02-13T21:11:07.942Z,4.59
2023-02-13T21:13:10.696Z,4.53
2023-02-13T21:15:12.717Z,4.61
2023-02-13T21:17:14.821Z,4.61
2023-02-13T21:19:21.359Z,4.69
2023-02-13T21:21:28.056Z,4.65
2023-02-13T21:23:31.025Z,4.71
2023-02-13T21:25:33.628Z,4.70
2023-02-13T21:27:35.634Z,4.70
2023-02-13T21:29:38.389Z,4.76
2023-02-13T21:31:47.957Z,4.82
2023-02-13T21:33:50.669Z,4.84
2023-02-13T21:36:01.131Z,4.76
2023-02-13T21:38:03.401Z,4.72
2023-02-13T21:40:06.205Z,4.76
2023-02-13T21:42:08.586Z,4.84
2023-02-13T21:44:16.126Z,4.76
2023-02-13T21:46:18.100Z,4.72
2023-02-13T21:48:20.534Z,4.83
2023-02-13T21:50:23.226Z,4.83
2023-02-13T21:52:25.228Z,4.86
2023-02-13T21:54:27.323Z,4.83
2023-02-13T21:56:32.226Z,4.82
2023-02-13T21:58:36.523Z,4.68
2023-02-13T22:00:38.494Z,4.74
2023-02-13T22:02:41.141Z,4.73
2023-02-13T22:04:43.325Z,4.69
2023-02-13T22:06:49.326Z,4.73
2023-02-13T22:08:57.115Z,4.70
2023-02-13T22:11:02.966Z,4.65
2023-02-13T22:13:05.264Z,4.66
2023-02-13T22:15:07.868Z,4.65
2023-02-13T22:17:10.261Z,4.64
2023-02-13T22:19:16.587Z,4.57
2023-02-13T22:21:23.126Z,4.59
2023-02-13T22:23:28.191Z,4.58
2023-02-13T22:25:30.568Z,4.63
2023-02-13T22:27:32.695Z,4.56
2023-02-13T22:29:35.015Z,4.59
2023-02-13T22:31:37.813Z,4.56
2023-02-13T22:33:40.923Z,4.62
2023-02-13T22:35:43.164Z,4.58
2023-02-13T22:37:45.034Z,4.57
2023-02-13T22:39:47.182Z,4.65
2023-02-13T22:41:49.227Z,4.64
2023-02-13T22:43:52.239Z,4.68
2023-02-13T22:45:54.316Z,4.69
2023-02-13T22:47:56.544Z,4.74
2023-02-13T22:49:58.750Z,4.74
2023-02-13T22:52:01.405Z,4.75
2023-02-13T22:54:04.204Z,4.68
2023-02-13T22:56:09.054Z,4.67
2023-02-13T22:58:11.734Z,4.68
2023-02-13T23:00:15.054Z,4.65
2023-02-13T23:02:17.098Z,4.62
2023-02-13T23:04:19.357Z,4.61
2023-02-13T23:06:22.127Z,4.58
2023-02-13T23:08:24.232Z,4.55
2023-02-13T23:10:26.962Z,4.56
2023-02-13T23:12:40.346Z,4.67
2023-02-13T23:14:42.357Z,4.66
2023-02-13T23:17:03.553Z,4.69
2023-02-13T23:19:05.840Z,4.64
2023-02-13T23:21:11.458Z,4.59
2023-02-13T23:23:13.588Z,4.61
2023-02-13T23:25:16.895Z,4.66
2023-02-13T23:27:19.038Z,4.63
2023-02-13T23:29:21.504Z,4.56
2023-02-13T23:31:23.607Z,4.46
2023-02-13T23:33:25.747Z,4.44
2023-02-13T23:35:27.820Z,4.46
2023-02-13T23:37:30.753Z,4.48
2023-02-13T23:39:32.890Z,4.41
2023-02-13T23:41:35.033Z,4.48
2023-02-13T23:43:37.100Z,4.51
2023-02-13T23:45:39.378Z,4.51
2023-02-13T23:47:41.673Z,4.47
2023-02-13T23:49:43.606Z,4.44
2023-02-13T23:51:45.702Z,4.41
2023-02-13T23:53:47.983Z,4.43
2023-02-13T23:55:50.867Z,4.45
2023-02-13T23:57:52.995Z,4.44
2023-02-13T23:59:55.040Z,4.48
